Time;durP1;ratioP1;P1;durP2;ratioP2;P2;SDS_P1;SDS_P2;PMS_P1;PMS_P2;Temp;Humidity;BMP_temperature;BMP_pressure;BME280_temperature;BME280_humidity;BME280_pressure;Samples;Min_cycle;Max_cycle;Signal;HPM_P1;HPM_P2
2022/07/08 02:46:20;;;;;;;0.80;0.10;;;18.00;74.20;;;;;;5877717;23;88754;-73
2022/07/08 02:48:46;;;;;;;3.28;0.10;;;17.90;74.80;;;;;;4898555;28;87020;-73
2022/07/08 02:51:12;;;;;;;1.10;0.30;;;17.80;75.70;;;;;;4899004;28;86851;-73
2022/07/08 02:53:39;;;;;;;0.98;0.20;;;17.80;75.70;;;;;;4899311;28;86895;-74
2022/07/08 02:56:05;;;;;;;1.40;0.20;;;17.80;75.60;;;;;;4899132;28;87428;-73
2022/07/08 02:58:31;;;;;;;1.50;0.20;;;17.80;76.20;;;;;;4898663;28;88391;-73
2022/07/08 03:00:57;;;;;;;1.88;0.20;;;17.70;76.10;;;;;;4899694;28;87359;-73
2022/07/08 03:03:22;;;;;;;0.80;0.20;;;17.80;75.80;;;;;;4899023;28;87558;-73
2022/07/08 03:05:48;;;;;;;1.40;0.20;;;17.90;75.60;;;;;;4898492;28;88192;-73
2022/07/08 03:08:14;;;;;;;1.88;0.40;;;17.90;75.30;;;;;;4898752;28;88666;-73
2022/07/08 03:10:40;;;;;;;1.40;0.20;;;17.80;75.40;;;;;;4899334;28;87352;-73
2022/07/08 03:13:05;;;;;;;1.10;0.20;;;17.70;76.10;;;;;;4898855;28;87058;-73
2022/07/08 03:15:31;;;;;;;1.00;0.10;;;17.80;76.70;;;;;;4898558;28;87420;-72
2022/07/08 03:17:57;;;;;;;1.08;0.25;;;17.70;76.10;;;;;;4898739;28;86972;-73
2022/07/08 03:20:23;;;;;;;1.88;0.13;;;17.70;76.90;;;;;;4899067;28;86872;-73
2022/07/08 03:22:48;;;;;;;2.75;0.20;;;17.80;76.00;;;;;;4899381;28;86332;-73
2022/07/08 03:25:14;;;;;;;1.05;0.30;;;17.80;76.00;;;;;;4897410;28;87643;-73
2022/07/08 03:27:40;;;;;;;0.95;0.25;;;17.80;76.20;;;;;;4898592;28;88552;-73
2022/07/08 03:30:06;;;;;;;0.65;0.13;;;17.90;75.70;;;;;;4898513;28;87687;-72
2022/07/08 03:32:32;;;;;;;0.73;0.20;;;17.80;76.10;;;;;;4898468;28;86455;-73
2022/07/08 03:34:58;;;;;;;1.60;0.13;;;17.80;75.20;;;;;;4898026;28;87620;-72
2022/07/08 03:37:25;;;;;;;1.63;0.30;;;17.80;75.00;;;;;;4898486;28;88437;-73
2022/07/08 03:39:53;;;;;;;0.70;0.20;;;17.80;75.50;;;;;;4898638;28;86990;-73
2022/07/08 03:42:19;;;;;;;0.60;0.10;;;18.00;75.80;;;;;;4898444;28;86927;-73
2022/07/08 03:44:45;;;;;;;0.73;0.10;;;18.00;76.80;;;;;;4897145;28;87668;-73
2022/07/08 03:47:11;;;;;;;1.73;0.30;;;18.10;77.00;;;;;;4899312;28;88823;-72
2022/07/08 03:49:37;;;;;;;1.95;0.10;;;18.10;76.90;;;;;;4897620;28;86869;-73
2022/07/08 03:52:03;;;;;;;0.73;0.20;;;18.00;76.50;;;;;;4896245;28;87131;-73
2022/07/08 03:54:29;;;;;;;2.05;0.20;;;18.10;75.00;;;;;;4894244;28;88608;-74
2022/07/08 03:56:55;;;;;;;1.02;0.30;;;18.10;75.00;;;;;;4893433;28;88946;-73
2022/07/08 03:59:20;;;;;;;1.30;0.20;;;18.10;75.60;;;;;;4899743;28;86951;-73
2022/07/08 04:01:46;;;;;;;1.58;0.20;;;18.20;74.80;;;;;;4892992;28;87026;-73
2022/07/08 04:04:12;;;;;;;2.08;0.20;;;18.20;74.70;;;;;;4895293;28;87524;-73
2022/07/08 04:06:37;;;;;;;3.08;0.20;;;18.20;74.30;;;;;;4897423;28;87253;-72
2022/07/08 04:09:04;;;;;;;0.80;0.20;;;18.20;74.50;;;;;;4897924;28;86604;-72
2022/07/08 04:11:30;;;;;;;1.23;0.20;;;18.20;74.90;;;;;;4898154;28;86083;-73
2022/07/08 04:13:56;;;;;;;1.17;0.22;;;18.20;74.70;;;;;;4901734;28;88303;-73
2022/07/08 04:16:22;;;;;;;2.38;0.20;;;18.20;74.20;;;;;;4897560;28;87381;-73
2022/07/08 04:18:48;;;;;;;1.58;0.30;;;18.10;74.40;;;;;;4897028;28;87932;-73
2022/07/08 04:21:14;;;;;;;1.73;0.28;;;18.20;74.90;;;;;;4893531;28;86972;-72
2022/07/08 04:23:40;;;;;;;1.42;0.30;;;18.00;75.00;;;;;;4897503;28;88057;-73
2022/07/08 04:26:06;;;;;;;3.38;0.40;;;18.00;76.00;;;;;;4901773;28;87066;-73
2022/07/08 04:28:33;;;;;;;2.00;0.20;;;18.00;76.60;;;;;;4898284;28;86945;-73
2022/07/08 04:30:59;;;;;;;2.35;0.28;;;17.90;76.90;;;;;;4902028;28;87122;-73
2022/07/08 04:33:25;;;;;;;1.08;0.28;;;17.80;77.60;;;;;;4894189;28;86572;-72
2022/07/08 04:35:51;;;;;;;2.55;0.40;;;17.80;77.80;;;;;;4894853;28;87249;-72
2022/07/08 04:38:17;;;;;;;2.33;0.20;;;17.80;77.80;;;;;;4898890;28;86914;-73
2022/07/08 04:40:42;;;;;;;2.85;0.30;;;17.80;78.00;;;;;;4900178;28;86506;-73
2022/07/08 04:43:09;;;;;;;1.15;0.25;;;17.70;79.20;;;;;;4910891;28;88550;-72
2022/07/08 04:45:35;;;;;;;0.40;0.13;;;17.70;78.50;;;;;;4908561;28;87545;-73
2022/07/08 04:48:01;;;;;;;2.22;0.20;;;17.80;77.70;;;;;;4904548;28;87159;-73
2022/07/08 04:50:26;;;;;;;4.90;0.20;;;17.90;77.50;;;;;;4897156;28;88031;-73
2022/07/08 04:52:52;;;;;;;2.65;0.20;;;17.90;76.90;;;;;;4903762;28;87706;-73
2022/07/08 04:55:27;;;;;;;0.98;0.32;;;18.00;76.80;;;;;;4904350;28;88020;-73
2022/07/08 04:57:55;;;;;;;1.80;0.40;;;18.10;76.40;;;;;;4902092;28;87529;-72
2022/07/08 05:00:20;;;;;;;0.60;0.20;;;18.00;76.40;;;;;;4898342;28;87830;-72
2022/07/08 05:02:46;;;;;;;2.58;0.30;;;18.00;76.40;;;;;;4899887;28;87358;-72
2022/07/08 05:05:12;;;;;;;1.70;0.20;;;18.30;75.80;;;;;;4901000;28;86956;-72
2022/07/08 05:07:38;;;;;;;1.70;0.43;;;18.40;77.20;;;;;;4897221;28;88060;-72
2022/07/08 05:10:04;;;;;;;4.18;0.38;;;18.20;77.70;;;;;;4898249;28;87118;-72
2022/07/08 05:12:29;;;;;;;3.22;0.38;;;18.40;77.60;;;;;;4897760;28;87284;-72
2022/07/08 05:14:55;;;;;;;3.65;0.43;;;19.00;75.90;;;;;;4898461;28;88620;-72
2022/07/08 05:17:21;;;;;;;2.35;0.35;;;19.50;73.50;;;;;;4898919;28;87325;-72
2022/07/08 05:19:46;;;;;;;2.05;0.52;;;19.60;72.50;;;;;;4898923;28;87120;-72
2022/07/08 05:22:12;;;;;;;3.60;0.60;;;19.60;72.70;;;;;;4900035;28;87328;-73
2022/07/08 05:24:38;;;;;;;2.83;0.68;;;19.50;72.50;;;;;;4898658;28;86976;-72
2022/07/08 05:27:04;;;;;;;5.05;0.80;;;19.30;73.40;;;;;;4898427;28;87256;-73
2022/07/08 05:29:29;;;;;;;3.70;0.60;;;19.30;74.20;;;;;;4903484;28;87049;-73
2022/07/08 05:31:55;;;;;;;3.80;0.45;;;19.50;73.00;;;;;;4901217;28;87896;-74
2022/07/08 05:34:22;;;;;;;4.28;0.52;;;19.60;72.60;;;;;;4901573;28;88860;-74
2022/07/08 05:36:48;;;;;;;3.60;0.45;;;19.60;72.30;;;;;;4900535;28;86976;-73
2022/07/08 05:39:14;;;;;;;5.68;0.30;;;20.10;70.00;;;;;;4909825;28;87507;-73
2022/07/08 05:41:40;;;;;;;5.05;0.60;;;21.40;65.20;;;;;;4901845;28;87261;-73
2022/07/08 05:44:06;;;;;;;2.60;0.43;;;22.50;62.20;;;;;;4902038;28;87935;-73
2022/07/08 05:46:32;;;;;;;4.97;0.28;;;24.10;59.50;;;;;;4899817;28;87409;-72
2022/07/08 05:48:58;;;;;;;1.85;0.45;;;25.10;56.10;;;;;;4901259;28;86217;-72
2022/07/08 05:51:24;;;;;;;3.40;0.45;;;25.90;55.60;;;;;;4900497;28;87760;-73
2022/07/08 05:53:52;;;;;;;2.92;0.70;;;26.40;53.60;;;;;;4899234;28;86680;-73
2022/07/08 05:56:18;;;;;;;3.15;0.60;;;26.50;53.20;;;;;;4899985;28;88061;-73
2022/07/08 05:58:43;;;;;;;2.85;0.68;;;27.10;52.40;;;;;;4898948;28;88346;-73
2022/07/08 06:01:09;;;;;;;3.50;0.85;;;28.10;51.00;;;;;;4899590;28;88746;-73
2022/07/08 06:03:35;;;;;;;3.60;0.43;;;29.00;49.70;;;;;;4897205;28;87122;-72
2022/07/08 06:06:00;;;;;;;4.55;0.82;;;29.40;46.90;;;;;;4900071;28;87068;-72
2022/07/08 06:08:26;;;;;;;3.63;0.70;;;29.40;47.10;;;;;;4898553;28;87108;-73
2022/07/08 06:10:52;;;;;;;4.63;0.93;;;30.50;46.20;;;;;;4897113;28;88704;-73
2022/07/08 06:13:18;;;;;;;2.17;0.63;;;30.70;45.70;;;;;;4901293;28;86547;-72
2022/07/08 06:15:43;;;;;;;3.85;0.70;;;31.00;45.50;;;;;;4897864;28;87012;-72
2022/07/08 06:18:09;;;;;;;7.32;0.85;;;30.30;45.90;;;;;;4898064;28;87019;-73
2022/07/08 06:20:35;;;;;;;5.45;0.80;;;28.40;47.40;;;;;;4900454;28;88344;-72
2022/07/08 06:23:00;;;;;;;3.40;1.00;;;28.80;48.00;;;;;;4900497;28;87615;-72
2022/07/08 06:25:26;;;;;;;2.22;0.88;;;28.60;47.80;;;;;;4901325;28;87376;-73
2022/07/08 06:27:52;;;;;;;4.07;0.68;;;29.90;46.00;;;;;;4901242;28;87041;-72
2022/07/08 06:30:17;;;;;;;2.45;0.73;;;31.40;43.50;;;;;;4900326;28;87264;-72
2022/07/08 06:32:43;;;;;;;5.63;1.05;;;31.90;43.00;;;;;;4903417;28;87051;-73
2022/07/08 06:35:10;;;;;;;2.88;0.82;;;32.30;42.30;;;;;;4897660;28;87432;-73
2022/07/08 06:37:36;;;;;;;2.38;1.00;;;33.20;41.30;;;;;;4901262;28;86339;-73
2022/07/08 06:40:02;;;;;;;3.20;1.08;;;33.30;40.80;;;;;;4897421;28;88151;-73
2022/07/08 06:42:28;;;;;;;2.55;1.20;;;32.90;42.10;;;;;;4899033;28;88236;-73
2022/07/08 06:44:54;;;;;;;4.15;1.25;;;33.50;41.10;;;;;;4899091;28;87768;-73
2022/07/08 06:47:22;;;;;;;2.22;1.00;;;34.00;40.20;;;;;;4898334;28;87109;-72
2022/07/08 06:49:49;;;;;;;4.75;1.23;;;34.40;39.30;;;;;;4899162;28;87432;-73
2022/07/08 06:52:15;;;;;;;3.22;1.08;;;35.00;37.90;;;;;;4898858;28;87284;-72
2022/07/08 06:54:40;;;;;;;2.83;0.93;;;34.60;39.40;;;;;;4898975;28;88144;-73
2022/07/08 06:57:07;;;;;;;4.00;1.23;;;34.70;40.00;;;;;;4898696;28;86975;-72
2022/07/08 06:59:37;;;;;;;2.28;0.82;;;36.10;37.80;;;;;;4898253;28;87096;-72
2022/07/08 07:02:03;;;;;;;4.78;1.52;;;36.50;36.60;;;;;;4898710;28;86315;-72
2022/07/08 07:04:29;;;;;;;3.70;1.75;;;36.40;37.50;;;;;;4899094;28;87437;-72
2022/07/08 07:06:55;;;;;;;2.75;1.45;;;35.40;38.70;;;;;;4898236;28;87177;-72
2022/07/08 07:09:21;;;;;;;3.53;1.30;;;33.60;40.20;;;;;;4897197;28;90447;-72
2022/07/08 07:11:46;;;;;;;3.50;1.00;;;34.00;41.20;;;;;;4891424;28;87033;-72
2022/07/08 07:14:12;;;;;;;4.95;0.90;;;36.00;37.80;;;;;;4898495;28;86996;-72
2022/07/08 07:16:38;;;;;;;3.83;1.00;;;35.40;37.90;;;;;;4896346;28;87002;-72
2022/07/08 07:19:04;;;;;;;2.70;1.63;;;34.90;41.10;;;;;;4898783;28;87409;-72
2022/07/08 07:21:29;;;;;;;3.88;1.13;;;36.60;37.70;;;;;;4898758;28;87385;-72
2022/07/08 07:23:55;;;;;;;4.38;1.38;;;37.50;35.40;;;;;;4898129;28;87664;-73
2022/07/08 07:26:21;;;;;;;2.78;1.60;;;37.70;37.00;;;;;;4898554;28;86143;-72
2022/07/08 07:28:46;;;;;;;2.30;1.42;;;38.80;36.00;;;;;;4898349;28;88273;-72
2022/07/08 07:31:12;;;;;;;7.57;1.42;;;38.70;34.60;;;;;;4898549;28;87341;-72
2022/07/08 07:33:38;;;;;;;3.42;1.05;;;38.70;35.30;;;;;;4897712;28;87955;-72
2022/07/08 07:36:04;;;;;;;3.13;1.35;;;38.90;34.90;;;;;;4898782;28;86924;-72
2022/07/08 07:38:30;;;;;;;2.53;1.15;;;38.60;35.20;;;;;;4897901;28;87349;-73
2022/07/08 07:40:56;;;;;;;5.60;1.52;;;39.40;34.50;;;;;;4897799;28;88245;-72
2022/07/08 07:43:21;;;;;;;6.88;2.70;;;38.90;34.70;;;;;;4898604;28;87456;-72
2022/07/08 07:45:47;;;;;;;3.13;1.27;;;39.00;33.80;;;;;;4898470;28;87021;-72
2022/07/08 07:48:13;;;;;;;4.13;1.40;;;38.70;34.70;;;;;;4897830;28;87009;-72
2022/07/08 07:50:39;;;;;;;4.82;1.60;;;39.20;33.70;;;;;;4898381;28;86833;-73
2022/07/08 07:53:05;;;;;;;4.60;2.45;;;39.60;32.80;;;;;;4895191;28;88294;-73
2022/07/08 07:55:31;;;;;;;4.05;2.15;;;39.80;34.40;;;;;;4898100;28;87017;-73
2022/07/08 07:57:56;;;;;;;4.57;2.28;;;40.30;34.20;;;;;;4895274;28;88506;-73
2022/07/08 08:00:22;;;;;;;4.60;1.85;;;38.80;34.20;;;;;;4894356;28;87303;-73
2022/07/08 08:02:48;;;;;;;3.35;1.88;;;38.80;34.30;;;;;;4894319;28;87315;-73
2022/07/08 08:05:14;;;;;;;6.32;2.47;;;38.90;34.70;;;;;;4897576;28;87041;-73
2022/07/08 08:07:40;;;;;;;4.45;2.50;;;40.10;33.70;;;;;;4896089;28;87088;-70
2022/07/08 08:10:07;;;;;;;3.42;1.92;;;41.30;33.00;;;;;;4892979;28;87343;-70
2022/07/08 08:12:33;;;;;;;4.50;2.40;;;41.70;32.40;;;;;;4899839;28;87169;-71
2022/07/08 08:14:59;;;;;;;4.13;2.45;;;41.10;31.70;;;;;;4901057;28;86287;-71
2022/07/08 08:17:25;;;;;;;4.47;2.15;;;40.60;32.20;;;;;;4901259;28;87675;-71
2022/07/08 08:19:51;;;;;;;4.75;2.58;;;41.30;30.90;;;;;;4901403;28;87038;-71
2022/07/08 08:22:17;;;;;;;4.03;2.20;;;40.90;31.50;;;;;;4899968;28;87886;-71
2022/07/08 08:24:43;;;;;;;4.35;2.03;;;41.70;30.70;;;;;;4901756;28;86992;-72
2022/07/08 08:27:09;;;;;;;5.10;1.92;;;41.60;30.90;;;;;;4900486;28;87746;-71
2022/07/08 08:29:35;;;;;;;5.00;2.33;;;42.00;30.90;;;;;;4900045;28;87349;-71
2022/07/08 08:32:01;;;;;;;5.30;1.67;;;41.20;30.40;;;;;;4901583;28;86461;-72
2022/07/08 08:34:27;;;;;;;4.25;2.33;;;40.40;32.60;;;;;;4901430;28;87503;-72
2022/07/08 08:36:52;;;;;;;7.53;2.63;;;42.60;30.60;;;;;;4900601;28;87218;-72
2022/07/08 08:39:18;;;;;;;4.07;2.00;;;43.70;29.50;;;;;;4900841;28;89506;-71
2022/07/08 08:41:44;;;;;;;4.43;1.60;;;41.00;31.70;;;;;;4900703;28;87100;-71
2022/07/08 08:44:10;;;;;;;3.70;2.00;;;41.80;31.00;;;;;;4900596;28;87304;-72
2022/07/08 08:46:36;;;;;;;3.88;1.92;;;42.80;30.90;;;;;;4902970;28;91174;-72
2022/07/08 08:49:02;;;;;;;4.20;2.70;;;44.10;30.00;;;;;;4905512;28;87287;-72
2022/07/08 08:51:34;;;;;;;6.28;3.60;;;45.60;28.00;;;;;;4916099;28;87114;-72
2022/07/08 08:54:04;;;;;;;7.03;3.40;;;43.80;29.60;;;;;;4898997;28;87063;-71
2022/07/08 08:56:30;;;;;;;3.13;1.80;;;43.70;29.50;;;;;;4892016;28;87899;-72
2022/07/08 08:58:57;;;;;;;5.78;2.47;;;42.30;30.10;;;;;;4892323;28;87075;-72
2022/07/08 09:01:23;;;;;;;5.15;2.75;;;42.70;30.40;;;;;;4891982;28;87101;-72
2022/07/08 09:03:49;;;;;;;5.20;3.47;;;42.70;30.50;;;;;;4892950;28;86279;-72
2022/07/08 09:06:15;;;;;;;3.95;3.40;;;44.40;30.40;;;;;;4892700;28;89166;-72
2022/07/08 09:08:40;;;;;;;6.35;3.22;;;45.30;29.80;;;;;;4892106;28;87379;-72
2022/07/08 09:11:07;;;;;;;4.72;2.35;;;45.70;28.80;;;;;;4894448;28;87865;-72
2022/07/08 09:13:33;;;;;;;4.40;2.95;;;46.00;28.10;;;;;;4892855;28;87918;-72
2022/07/08 09:15:59;;;;;;;4.78;2.58;;;46.20;28.60;;;;;;4892862;28;89432;-72
2022/07/08 09:18:34;;;;;;;3.83;2.20;;;46.50;28.60;;;;;;4893304;28;89889;-72
2022/07/08 09:21:01;;;;;;;5.68;2.67;;;45.00;28.80;;;;;;4895396;28;87590;-72
2022/07/08 09:23:30;;;;;;;6.43;2.63;;;45.00;29.20;;;;;;4898883;28;87055;-72
2022/07/08 09:26:01;;;;;;;5.80;2.58;;;45.80;28.30;;;;;;4901733;28;87000;-72
2022/07/08 09:28:40;;;;;;;7.13;2.50;;;46.60;27.30;;;;;;4894740;28;86678;-72
2022/07/08 09:31:07;;;;;;;5.22;3.10;;;46.20;28.90;;;;;;4894386;28;87588;-72
2022/07/08 09:33:34;;;;;;;4.63;2.35;;;43.90;30.20;;;;;;4897402;28;87349;-72
2022/07/08 09:36:03;;;;;;;5.72;3.45;;;44.10;30.30;;;;;;4900428;28;88021;-72
2022/07/08 09:38:30;;;;;;;4.40;2.30;;;45.90;28.10;;;;;;4901161;28;89280;-72
2022/07/08 09:41:12;;;;;;;6.25;3.78;;;46.90;28.90;;;;;;4904322;28;86755;-72
2022/07/08 09:43:49;;;;;;;7.00;3.28;;;47.70;28.60;;;;;;4891953;28;87166;-72
2022/07/08 09:46:15;;;;;;;4.13;3.42;;;48.30;27.80;;;;;;4892917;28;88654;-72
2022/07/08 09:48:41;;;;;;;8.43;3.28;;;48.80;27.90;;;;;;4898826;28;87430;-72
2022/07/08 09:51:08;;;;;;;5.63;2.92;;;49.30;27.50;;;;;;4900106;28;86686;-72
2022/07/08 09:53:35;;;;;;;4.43;3.30;;;48.10;27.90;;;;;;4900125;28;86270;-72
2022/07/08 09:56:02;;;;;;;5.50;3.92;;;47.30;28.90;;;;;;4899101;28;87299;-72
2022/07/08 09:58:30;;;;;;;4.82;2.35;;;47.80;27.30;;;;;;4899670;28;87295;-72
2022/07/08 10:00:57;;;;;;;4.10;2.58;;;46.50;27.80;;;;;;4892472;28;87952;-72
2022/07/08 10:03:24;;;;;;;7.05;2.88;;;46.10;27.90;;;;;;4900702;28;86987;-72
2022/07/08 10:05:50;;;;;;;3.30;2.17;;;45.60;28.60;;;;;;4895806;28;86999;-72
2022/07/08 10:08:18;;;;;;;4.55;3.45;;;44.50;28.80;;;;;;4900366;28;87884;-72
2022/07/08 10:10:46;;;;;;;3.75;2.72;;;44.00;27.90;;;;;;4901171;28;86961;-72
2022/07/08 10:13:14;;;;;;;3.45;2.38;;;41.80;29.50;;;;;;4898838;28;86906;-72
2022/07/08 10:15:40;;;;;;;;;;;39.80;31.10;;;;;;4904105;28;88146;-72
2022/07/08 10:18:14;;;;;;;4.38;2.20;;;38.40;30.90;;;;;;4901323;28;86559;-72
2022/07/08 10:20:46;;;;;;;5.57;1.85;;;35.50;34.60;;;;;;4898687;28;88686;-72
2022/07/08 10:23:22;;;;;;;3.17;2.30;;;34.30;35.60;;;;;;4895103;28;86970;-72
2022/07/08 10:25:49;;;;;;;2.95;1.50;;;32.10;36.90;;;;;;4893295;28;89160;-72
2022/07/08 10:28:15;;;;;;;3.10;1.52;;;31.00;38.00;;;;;;4894364;28;87932;-71
2022/07/08 10:30:46;;;;;;;3.65;0.93;;;30.10;40.10;;;;;;4892813;28;88759;-71
2022/07/08 10:33:28;;;;;;;3.42;1.17;;;29.50;44.00;;;;;;4889782;28;88445;-71
2022/07/08 10:36:12;;;;;;;3.20;1.40;;;29.60;43.50;;;;;;4894266;28;88575;-71
2022/07/08 10:38:40;;;;;;;3.38;0.52;;;28.80;43.10;;;;;;4886379;28;87720;-71
2022/07/08 10:41:11;;;;;;;2.05;0.82;;;28.40;42.40;;;;;;4890530;28;87097;-71
2022/07/08 10:44:00;;;;;;;2.22;0.90;;;27.60;45.60;;;;;;4901089;28;86206;-71
2022/07/08 10:46:26;;;;;;;7.32;1.10;;;27.10;48.60;;;;;;4898842;28;87269;-71
2022/07/08 10:49:02;;;;;;;4.97;1.15;;;26.60;48.50;;;;;;4889664;28;87643;-71
2022/07/08 10:51:28;;;;;;;2.75;1.13;;;25.90;49.10;;;;;;4891287;28;88548;-71
2022/07/08 10:53:55;;;;;;;2.85;0.85;;;25.80;47.70;;;;;;4889696;28;87466;-71
2022/07/08 10:57:00;;;;;;;2.75;0.85;;;25.80;50.00;;;;;;4889561;28;89221;-71
2022/07/08 10:59:38;;;;;;;2.67;0.73;;;25.20;49.60;;;;;;4892386;28;87516;-71
2022/07/08 11:02:04;;;;;;;5.40;0.80;;;25.30;51.80;;;;;;4893783;28;87425;-71
2022/07/08 11:04:38;;;;;;;3.17;0.52;;;25.50;49.80;;;;;;4894503;28;87482;-71
2022/07/08 11:07:28;;;;;;;2.95;0.82;;;26.00;49.10;;;;;;4899601;28;87213;-71
2022/07/08 11:10:08;;;;;;;2.67;0.50;;;26.10;49.40;;;;;;4899854;28;87060;-71
2022/07/08 11:12:35;;;;;;;2.00;0.55;;;26.30;49.80;;;;;;4899320;28;86928;-72
2022/07/08 11:15:04;;;;;;;2.67;0.63;;;25.50;47.00;;;;;;4900082;28;87371;-72
2022/07/08 11:17:31;;;;;;;;;;;25.20;51.20;;;;;;4900068;28;90001;-71
2022/07/08 11:19:59;;;;;;;2.25;0.60;;;25.20;50.10;;;;;;4900752;28;87503;-71
2022/07/08 11:22:26;;;;;;;2.72;0.55;;;25.00;48.60;;;;;;4899010;28;86975;-71
2022/07/08 11:24:55;;;;;;;4.82;0.88;;;24.60;51.70;;;;;;4899494;28;87366;-71
2022/07/08 11:27:30;;;;;;;3.17;0.32;;;24.60;52.60;;;;;;4896015;28;87429;-72
2022/07/08 11:29:57;;;;;;;2.72;0.50;;;25.40;51.00;;;;;;4899257;28;87208;-71
2022/07/08 11:32:25;;;;;;;3.67;0.88;;;25.20;47.90;;;;;;4899527;28;86727;-72
2022/07/08 11:34:53;;;;;;;3.10;0.60;;;25.10;46.80;;;;;;4900358;28;86253;-72
2022/07/08 11:37:19;;;;;;;4.18;0.65;;;24.80;47.90;;;;;;4901655;28;88641;-72
2022/07/08 11:39:45;;;;;;;3.90;0.73;;;24.30;52.70;;;;;;4898904;28;87764;-72
2022/07/08 11:42:12;;;;;;;2.13;0.32;;;24.40;53.50;;;;;;4898288;28;88044;-71
2022/07/08 11:44:38;;;;;;;2.97;0.52;;;24.60;52.10;;;;;;4897130;28;86902;-73
2022/07/08 11:47:04;;;;;;;2.20;0.65;;;25.10;50.20;;;;;;4890549;28;87045;-71
2022/07/08 11:49:31;;;;;;;2.13;0.43;;;24.90;49.70;;;;;;4881356;28;87617;-72
2022/07/08 11:51:58;;;;;;;1.38;0.35;;;24.90;52.00;;;;;;4885976;28;86827;-72
2022/07/08 11:54:28;;;;;;;2.30;0.47;;;24.90;52.60;;;;;;4879794;28;87227;-72
2022/07/08 11:56:55;;;;;;;1.63;0.30;;;24.60;50.60;;;;;;4880098;28;87159;-72
2022/07/08 11:59:22;;;;;;;1.20;0.52;;;24.20;48.50;;;;;;4883974;28;87073;-72
2022/07/08 12:01:50;;;;;;;3.38;0.50;;;24.20;49.50;;;;;;4882298;28;87182;-72
2022/07/08 12:04:16;;;;;;;2.22;0.45;;;24.00;50.00;;;;;;4882106;28;87008;-72
2022/07/08 12:06:48;;;;;;;1.95;0.32;;;24.30;52.60;;;;;;4881697;28;88209;-72
2022/07/08 12:09:15;;;;;;;2.20;0.45;;;24.10;50.20;;;;;;4875981;28;88934;-72
2022/07/08 12:11:44;;;;;;;2.40;0.52;;;24.20;52.60;;;;;;4872617;28;86675;-72
2022/07/08 12:14:10;;;;;;;2.15;0.40;;;24.70;49.70;;;;;;4879936;28;87096;-72
2022/07/08 12:16:56;;;;;;;1.55;0.50;;;24.60;49.60;;;;;;4881940;28;87682;-72
2022/07/08 12:19:36;;;;;;;3.03;0.30;;;24.60;48.80;;;;;;4879180;28;87095;-72
2022/07/08 12:22:12;;;;;;;3.45;0.50;;;24.50;46.40;;;;;;4882503;28;87031;-72
2022/07/08 12:24:41;;;;;;;1.80;0.30;;;24.40;48.00;;;;;;4882045;28;86312;-72
2022/07/08 12:27:17;;;;;;;1.58;0.40;;;24.50;48.40;;;;;;4881413;28;87236;-71
2022/07/08 12:29:43;;;;;;;2.97;0.50;;;24.30;47.80;;;;;;4879415;28;86978;-72
2022/07/08 12:32:10;;;;;;;1.02;0.28;;;24.10;50.20;;;;;;4885147;28;87983;-72
2022/07/08 12:34:36;;;;;;;0.95;0.47;;;24.00;52.20;;;;;;4878826;28;87646;-72
2022/07/08 12:37:16;;;;;;;2.30;0.50;;;24.10;50.20;;;;;;4881634;28;87281;-72
2022/07/08 12:39:42;;;;;;;2.05;0.43;;;24.20;49.90;;;;;;4879904;28;87373;-72
2022/07/08 12:42:08;;;;;;;1.30;0.28;;;24.10;50.20;;;;;;4881198;28;87550;-72
2022/07/08 12:44:40;;;;;;;2.20;0.50;;;23.90;49.50;;;;;;4880172;28;86674;-72
2022/07/08 12:47:10;;;;;;;2.17;0.38;;;23.70;50.80;;;;;;4887981;28;87726;-72
2022/07/08 12:49:38;;;;;;;2.35;0.30;;;23.60;49.10;;;;;;4900654;28;86974;-72
2022/07/08 12:52:06;;;;;;;6.10;0.60;;;23.90;50.20;;;;;;4899959;28;87148;-71
2022/07/08 12:54:32;;;;;;;3.85;0.50;;;24.00;48.70;;;;;;4900553;28;87042;-72
2022/07/08 12:56:59;;;;;;;2.63;0.70;;;23.60;50.80;;;;;;4899657;28;88296;-72
2022/07/08 12:59:26;;;;;;;2.95;0.50;;;23.60;52.30;;;;;;4901047;28;88256;-72
2022/07/08 13:01:53;;;;;;;3.30;0.22;;;23.80;50.20;;;;;;4901208;28;86830;-72
2022/07/08 13:04:19;;;;;;;1.85;0.40;;;24.00;49.50;;;;;;4899002;28;86809;-72
2022/07/08 13:06:47;;;;;;;2.17;0.70;;;24.20;50.20;;;;;;4903525;28;87513;-72
2022/07/08 13:09:13;;;;;;;1.58;0.55;;;24.00;52.00;;;;;;4900301;28;86885;-72
2022/07/08 13:11:40;;;;;;;1.10;0.30;;;24.10;51.10;;;;;;4900302;28;87030;-72
2022/07/08 13:14:06;;;;;;;1.48;0.30;;;24.20;51.20;;;;;;4900212;28;86265;-72
2022/07/08 13:16:32;;;;;;;2.53;0.28;;;24.30;50.50;;;;;;4889978;28;87693;-72
2022/07/08 13:18:57;;;;;;;1.70;0.50;;;24.10;50.80;;;;;;4899786;28;87093;-72
2022/07/08 13:21:23;;;;;;;1.83;0.43;;;24.20;49.10;;;;;;4899566;28;87919;-72
2022/07/08 13:23:49;;;;;;;1.77;0.30;;;24.30;49.30;;;;;;4900108;28;87348;-72
2022/07/08 13:26:14;;;;;;;2.15;0.35;;;24.00;51.00;;;;;;4899722;28;86693;-72
2022/07/08 13:28:40;;;;;;;3.10;0.30;;;23.90;52.20;;;;;;4899635;28;87031;-72
2022/07/08 13:31:06;;;;;;;2.65;0.40;;;23.90;50.30;;;;;;4900292;28;86248;-72
2022/07/08 13:33:32;;;;;;;2.88;0.32;;;24.10;49.90;;;;;;4900894;28;87073;-72
2022/07/08 13:35:57;;;;;;;23.30;3.13;;;24.20;52.90;;;;;;4899907;28;87306;-73
2022/07/08 13:38:23;;;;;;;3.50;0.40;;;24.10;47.30;;;;;;4899966;28;86445;-72
2022/07/08 13:40:52;;;;;;;45.03;5.57;;;24.00;49.40;;;;;;4899743;28;87012;-72
2022/07/08 13:43:18;;;;;;;29.85;4.35;;;24.10;48.00;;;;;;4900733;28;87513;-72
2022/07/08 13:45:44;;;;;;;1.95;0.47;;;24.00;49.70;;;;;;4899260;28;88616;-72
2022/07/08 13:48:10;;;;;;;3.83;0.30;;;24.10;42.20;;;;;;4899099;28;87296;-72
2022/07/08 13:50:36;;;;;;;4.50;0.25;;;24.00;42.40;;;;;;4900959;28;87031;-72
2022/07/08 13:53:02;;;;;;;4.43;0.50;;;24.00;44.90;;;;;;4897782;28;87240;-72
2022/07/08 13:55:27;;;;;;;0.70;0.20;;;24.20;45.30;;;;;;4896559;28;88513;-72
2022/07/08 13:57:53;;;;;;;1.33;0.22;;;24.00;43.40;;;;;;4898664;28;86963;-72
2022/07/08 14:00:19;;;;;;;1.38;0.20;;;23.80;43.10;;;;;;4901333;28;87190;-72
2022/07/08 14:02:44;;;;;;;2.22;0.20;;;23.80;45.20;;;;;;4901328;28;86329;-72
2022/07/08 14:05:10;;;;;;;1.23;0.20;;;24.00;45.70;;;;;;4901563;28;87093;-72
2022/07/08 14:07:36;;;;;;;0.70;0.10;;;24.00;45.20;;;;;;4900864;28;87039;-72
2022/07/08 14:10:03;;;;;;;1.33;0.30;;;24.20;41.10;;;;;;4899713;28;88038;-72
2022/07/08 14:12:29;;;;;;;1.52;0.22;;;24.00;40.00;;;;;;4899731;28;87095;-72
2022/07/08 14:14:55;;;;;;;2.13;0.30;;;24.10;41.30;;;;;;4901331;28;87017;-72
2022/07/08 14:17:20;;;;;;;4.35;0.30;;;24.10;44.10;;;;;;4895509;28;86950;-72
2022/07/08 14:19:46;;;;;;;0.55;0.10;;;24.30;44.50;;;;;;4901265;28;86961;-73
2022/07/08 14:22:12;;;;;;;0.88;0.20;;;24.20;41.10;;;;;;4898076;28;86957;-73
2022/07/08 14:24:37;;;;;;;0.73;0.15;;;24.10;45.20;;;;;;4886707;28;88132;-72
2022/07/08 14:27:03;;;;;;;3.25;0.17;;;24.00;41.20;;;;;;4887344;28;86750;-72
2022/07/08 14:29:29;;;;;;;1.58;0.22;;;24.10;38.30;;;;;;4887701;28;88585;-73
2022/07/08 14:31:55;;;;;;;0.70;0.10;;;24.10;39.20;;;;;;4887276;28;88607;-72
2022/07/08 14:34:22;;;;;;;0.82;0.15;;;24.00;37.90;;;;;;4889471;28;88618;-72
2022/07/08 14:36:47;;;;;;;1.70;0.10;;;23.80;39.40;;;;;;4885480;28;87815;-72
2022/07/08 14:39:13;;;;;;;0.88;0.13;;;24.00;40.70;;;;;;4894127;28;86989;-72
2022/07/08 14:41:39;;;;;;;1.08;0.30;;;23.90;39.00;;;;;;4899121;28;87080;-72
2022/07/08 14:44:05;;;;;;;1.63;0.17;;;24.00;39.10;;;;;;4898497;28;87008;-72
2022/07/08 14:46:31;;;;;;;1.58;0.32;;;23.90;39.10;;;;;;4901416;28;86896;-72
2022/07/08 14:48:56;;;;;;;2.70;0.30;;;24.00;41.30;;;;;;4910329;28;87035;-72
2022/07/08 14:51:22;;;;;;;1.58;0.30;;;24.00;40.70;;;;;;4909794;28;86270;-72
2022/07/08 14:53:48;;;;;;;1.92;0.52;;;24.00;40.20;;;;;;4898971;28;87112;-72
2022/07/08 14:56:14;;;;;;;3.28;0.20;;;23.90;42.10;;;;;;4905866;28;86898;-72
2022/07/08 14:58:40;;;;;;;3.08;0.20;;;24.10;40.80;;;;;;4902106;28;88012;-72
2022/07/08 15:01:07;;;;;;;3.35;0.30;;;24.20;40.70;;;;;;4905315;28;87090;-72
2022/07/08 15:03:32;;;;;;;1.83;0.20;;;24.30;40.60;;;;;;4898594;28;87142;-72
2022/07/08 15:05:59;;;;;;;0.52;0.22;;;24.20;40.90;;;;;;4898918;28;87117;-72
2022/07/08 15:08:28;;;;;;;1.42;0.22;;;24.30;40.50;;;;;;4899120;28;87134;-72
2022/07/08 15:10:55;;;;;;;1.58;0.20;;;24.20;40.50;;;;;;4921055;28;87182;-72
2022/07/08 15:13:21;;;;;;;1.73;0.43;;;24.30;39.60;;;;;;4908435;28;87529;-72
2022/07/08 15:15:47;;;;;;;2.75;0.50;;;24.30;42.10;;;;;;4908510;28;87311;-72
2022/07/08 15:18:13;;;;;;;2.85;0.40;;;24.00;40.20;;;;;;4898635;28;87103;-72
2022/07/08 15:20:39;;;;;;;4.07;0.35;;;24.00;41.90;;;;;;4898240;28;87000;-72
2022/07/08 15:23:05;;;;;;;0.55;0.20;;;23.90;42.60;;;;;;4907223;28;88326;-72
2022/07/08 15:25:30;;;;;;;2.13;0.30;;;24.00;40.70;;;;;;4908164;28;87130;-72
2022/07/08 15:27:56;;;;;;;1.50;0.40;;;23.90;42.50;;;;;;4913118;28;87082;-72
2022/07/08 15:30:22;;;;;;;1.00;0.32;;;24.00;42.00;;;;;;4903506;28;87126;-72
2022/07/08 15:32:48;;;;;;;6.68;0.32;;;24.10;43.00;;;;;;4911975;28;87046;-72